x

Portland 12 Nm Southeast Of Portland,me (44007) Wave Buoy

7:50pm - Mon 10th Dec 2018 All times are EST. -5 hours from GMT.

  • Sig Wave height 2.0ft
  • Swell Direction
  • Peak Period 3s
  • Average Period 3s
  • Wind
    16mph, 20mph gusts
  • Sea Temp 44°f
  • Air Temp 26°f
  • Sea Pressure 1021.5mb
  • Portland 12 Nm Southeast Of Portland,me
  • Portland 12 Nm Southeast Of Portland,me

More Historic Weather Station data

Upgrade to MSW Pro to gain access to the past 30 days of data for over 8000 Wavebouys and Weather Stations around the globe.

Join

Comparision Forecast

View Surf forecast
   
Mon 12/10 7:50pm 2ft 3s 3s 16 20 mph 1021.5mb 44f 26f
6:50pm 1.6ft 3s 3s 18 22 mph 1020.8mb 45f 27f
5:50pm 1.6ft 3s 3s 16 20 mph 1020.5mb 44f 29f
4:50pm 1.3ft 3s 3s 13 18 mph 1019.9mb 44f 30f
3:50pm 1.3ft 3s 3s 13 18 mph 1019.3mb 44f 31f
2:50pm 1.3ft 3s 3s 11 16 mph 1018.8mb 45f 31f
1:50pm 1.6ft 3s 3s 11 18 mph 1018.3mb 44f 30f
12:50pm 1.6ft 3s 3s 18 22 mph 1018.1mb 45f 30f
11:50am 2ft 4s 3s 16 20 mph 1018.3mb 45f 29f
10:50am 2ft 4s 3s 18 20 mph 1018.9mb 45f 29f
9:50am 2ft 3s 3s 18 22 mph 1019.3mb 45f 29f
8:50am 1.6ft 3s 3s 22 29 mph 1018.6mb 44f 31f
7:50am 1.6ft 5s 3s 16 22 mph 1018.4mb 44f 32f
6:50am 1.3ft 4s 4s 16 20 mph 1018mb 44f 33f
4:50am 2ft 5s 4s 9 11 mph 1017.5mb 44f 32f
3:50am 2ft 5s 4s 9 11 mph 1017.4mb 44f 30f
2:50am 2.5ft 6s 4s 11 13 mph 1017.6mb 44f 31f
1:50am 2.5ft 6s 4s 16 20 mph 1017.6mb 44f 31f
12:50am 3ft 5s 4s 18 20 mph 1017.7mb 44f 32f
Sun 12/09 11:50pm 3.5ft 5s 4s 20 22 mph 1017.9mb 44f 33f
8:50pm 3ft 5s 4s 22 27 mph 1019.3mb 43f 34f
7:50pm 2.5ft 4s 4s 20 25 mph 1019.5mb 43f 35f
6:50pm 2.5ft 4s 4s 20 25 mph 1020.2mb 43f 34f
5:50pm 2ft 4s 3s 20 25 mph 1020.9mb 43f 34f
4:50pm 2ft 4s 4s 18 20 mph 1021.4mb 43f 34f
3:50pm 1.6ft 4s 3s 13 18 mph 1022.2mb 43f 33f
2:50pm 1.6ft 4s 3s 13 18 mph 1022.9mb 43f 33f
12:50pm 1.6ft 4s 4s 4 9 mph 1024.6mb 43f 31f
11:50am 1.6ft 4s 4s 4 9 mph 1025.8mb 43f 29f
10:50am 1.6ft 4s 3s 11 13 mph 1027.1mb 43f 27f
9:50am 2ft 4s 3s 13 20 mph 1028.2mb 43f 26f
8:50am 2.5ft 4s 3s 16 20 mph 1028.8mb 43f 26f
7:50am 2ft 4s 3s 16 20 mph 1029mb 43f 25f
6:50am 2ft 4s 3s 16 18 mph 1029.1mb 43f 24f
5:50am 2ft 4s 4s 16 18 mph 1029.4mb 43f 25f
4:50am 2ft 4s 3s 16 20 mph 1029.5mb 44f 24f
3:50am 2ft 4s 3s 18 22 mph 1029.6mb 44f 25f
2:50am 1.3ft 3s 3s 18 22 mph 1030mb 45f 25f
1:50am 1.3ft 3s 3s 13 18 mph 1030mb 44f 22f
12:50am 1.3ft 3s 3s 18 22 mph 1029.5mb 44f 23f
Sat 12/08 11:50pm 1.3ft 3s 3s 13 20 mph 1030.3mb 44f 23f
10:50pm 1.3ft 3s 3s 16 18 mph 1030.4mb 44f 22f
9:50pm 1.3ft 3s 3s 16 18 mph 1031mb 44f 22f
8:50pm 1.3ft 10s 3s 16 18 mph 1031.3mb 44f 22f
7:50pm 1.3ft 10s 4s 11 13 mph 1030.9mb 44f 22f
6:50pm 1.6ft 10s 4s 11 16 mph 1030.2mb 44f 23f
5:50pm 1.6ft 10s 4s 16 20 mph 1029.5mb 44f 24f
4:50pm 1ft 10s 6s 13 16 mph 1028.6mb 44f 25f
3:50pm 1.3ft 10s 7s 9 13 mph 1028mb 44f 25f
2:50pm 1.3ft 10s 7s 9 16 mph 1027.9mb 44f 24f
1:50pm 1.3ft 11s 6s 9 16 mph 1027.9mb 45f 24f
12:50pm 1.3ft 11s 5s 7 13 mph 1028.1mb 45f 22f
11:50am 1.3ft 11s 4s 2 9 mph 1028.7mb 45f 21f
10:50am 1.6ft 11s 4s 2 7 mph 1029.6mb 45f 21f
9:50am 1.6ft 11s  -  9 13 mph 1029.9mb 45f 20f
7:50am 2ft 11s 4s 11 16 mph 1029mb 45f 18f
6:50am 2ft 12s 4s 13 18 mph 1028.7mb 45f 19f
5:50am 2ft 12s 4s 16 20 mph 1028.5mb 45f 19f
4:50am 2.5ft 11s 5s 16 20 mph 1028.5mb 45f 19f
3:50am 2.5ft 11s 5s 13 18 mph 1028.1mb 45f 20f
2:50am 2.5ft 11s 5s 16 20 mph 1027.6mb 45f 20f
1:50am 2ft 11s 5s 13 18 mph 1027.9mb 45f 21f
12:50am 2ft 12s 5s 13 16 mph 1027.6mb 45f 22f
Fri 12/07 11:50pm 2ft 12s 4s 16 20 mph 1027.4mb 45f 23f
10:50pm 2ft 12s 4s 13 18 mph 1027.1mb 45f 24f
9:50pm 2ft 13s 4s 16 22 mph 1026.8mb 46f 24f
8:50pm 2ft 12s 4s 18 22 mph 1026.6mb 46f 26f
7:50pm 2.5ft 12s 4s 16 20 mph 1026.5mb 46f 27f
6:50pm 2.5ft 11s 4s 16 22 mph 1025.9mb 46f 28f
5:50pm 3ft 10s 4s 20 25 mph 1025.2mb 46f 30f
4:50pm 2.5ft 11s 4s 18 22 mph 1024.3mb 46f 32f
3:50pm 2.5ft 10s 4s 20 25 mph 1023.3mb 46f 33f
2:50pm 2.5ft 10s 4s 20 25 mph 1022.1mb 45f 35f
1:50pm 2.5ft 10s 4s 22 29 mph 1021mb 45f 35f
12:50pm 3ft 11s 4s 18 22 mph 1020.5mb 45f 36f
11:50am 2.5ft 11s 5s 13 18 mph 1020.3mb 45f 36f
10:50am 2.5ft 11s 4s 16 22 mph 1020.4mb 44f 35f
9:50am 2.5ft 5s 4s 18 20 mph 1020.3mb 44f 35f
8:50am 2.5ft 5s 4s 20 25 mph 1019.3mb 44f 33f
7:50am 2.5ft 5s 4s 18 22 mph 1018.3mb 44f 34f
6:50am 3ft 5s 4s 20 25 mph 1017.6mb 44f 35f
5:50am 3ft 5s 4s 20 22 mph 1017.2mb 44f 35f
4:50am 2.5ft 5s 4s 20 25 mph 1016.9mb 44f 36f
3:50am 2.5ft 5s 4s 18 22 mph 1016.7mb 45f 36f
2:50am 3ft 5s 4s 20 22 mph 1016.8mb 44f 37f